Time;durP1;ratioP1;P1;durP2;ratioP2;P2;SDS_P1;SDS_P2;PMS_P1;PMS_P2;Temp;Humidity;BMP_temperature;BMP_pressure;BME280_temperature;BME280_humidity;BME280_pressure;Samples;Min_cycle;Max_cycle;Signal;HPM_P1;HPM_P2
2021/08/25 00:02:04;;;;;;;8.93;8.03;;;14.30;99.90;;;;;;5071571;28;20212;-61
2021/08/25 00:04:32;;;;;;;8.90;8.00;;;14.20;99.90;;;;;;5071554;28;20605;-61
2021/08/25 00:06:59;;;;;;;10.53;8.17;;;14.20;99.90;;;;;;5071744;28;20220;-61
2021/08/25 00:09:25;;;;;;;8.80;7.90;;;14.20;99.90;;;;;;5070917;28;20744;-61
2021/08/25 00:11:52;;;;;;;8.73;7.83;;;14.20;99.90;;;;;;5071387;28;20610;-61
2021/08/25 00:14:19;;;;;;;8.80;7.90;;;14.20;99.90;;;;;;5071235;28;20635;-61
2021/08/25 00:16:45;;;;;;;9.37;8.00;;;14.20;99.90;;;;;;5071634;28;20205;-61
2021/08/25 00:19:12;;;;;;;9.43;8.17;;;14.20;99.90;;;;;;5071516;28;20209;-61
2021/08/25 00:21:40;;;;;;;9.40;7.87;;;14.20;99.90;;;;;;5071406;28;20278;-61
2021/08/25 00:24:07;;;;;;;8.53;7.73;;;14.20;99.90;;;;;;5071113;28;20204;-61
2021/08/25 00:26:33;;;;;;;9.17;8.37;;;14.10;99.90;;;;;;5071144;28;20209;-61
2021/08/25 00:29:00;;;;;;;11.10;8.63;;;14.10;99.90;;;;;;5070908;28;20205;-61
2021/08/25 00:31:27;;;;;;;9.73;7.90;;;14.10;99.90;;;;;;5070999;28;20236;-61
2021/08/25 00:33:53;;;;;;;9.77;8.27;;;14.10;99.90;;;;;;5071095;28;20609;-61
2021/08/25 00:36:20;;;;;;;10.80;8.77;;;14.00;99.90;;;;;;5071227;28;20208;-61
2021/08/25 00:38:48;;;;;;;9.27;8.37;;;14.00;99.90;;;;;;5071004;28;20208;-61
2021/08/25 00:41:15;;;;;;;9.13;8.23;;;13.90;99.90;;;;;;5070819;28;20240;-61
2021/08/25 00:43:41;;;;;;;9.23;8.43;;;13.90;99.90;;;;;;5071021;28;20209;-61
2021/08/25 00:46:11;;;;;;;9.00;8.10;;;13.80;99.90;;;;;;5071014;28;20237;-61
2021/08/25 00:48:37;;;;;;;9.63;8.20;;;13.80;99.90;;;;;;5070927;28;20216;-61
2021/08/25 00:51:04;;;;;;;9.03;8.13;;;13.70;99.90;;;;;;5070851;28;20228;-61
2021/08/25 00:53:31;;;;;;;8.67;7.67;;;13.80;99.90;;;;;;5070849;28;20232;-61
2021/08/25 00:55:59;;;;;;;9.03;8.13;;;13.80;99.90;;;;;;5070823;28;20205;-61
2021/08/25 00:58:27;;;;;;;9.03;7.83;;;13.80;99.90;;;;;;5071026;28;20205;-61
2021/08/25 01:01:02;;;;;;;8.83;7.93;;;13.80;99.90;;;;;;5071012;28;20225;-61
2021/08/25 01:03:33;;;;;;;8.67;7.87;;;13.70;99.90;;;;;;5070818;28;20215;-61
2021/08/25 01:06:00;;;;;;;9.27;8.10;;;13.70;99.90;;;;;;5070661;28;20315;-61
2021/08/25 01:08:27;;;;;;;8.93;8.10;;;13.70;99.90;;;;;;5070784;28;20208;-61
2021/08/25 01:11:06;;;;;;;9.63;8.63;;;13.70;99.90;;;;;;5070781;28;20225;-61
2021/08/25 01:13:33;;;;;;;9.47;8.57;;;13.70;99.90;;;;;;5070599;28;20204;-61
2021/08/25 01:16:00;;;;;;;10.43;8.63;;;13.60;99.90;;;;;;5071194;28;20197;-61
2021/08/25 01:18:27;;;;;;;10.63;9.53;;;13.60;99.90;;;;;;5070628;28;20240;-61
2021/08/25 01:20:55;;;;;;;10.17;9.17;;;13.60;99.90;;;;;;5071550;28;20771;-61
2021/08/25 01:23:22;;;;;;;10.77;9.43;;;13.60;99.90;;;;;;5074908;28;20209;-61
2021/08/25 01:25:51;;;;;;;11.10;8.93;;;13.50;99.90;;;;;;5074680;28;20228;-61
2021/08/25 01:28:21;;;;;;;10.70;9.13;;;13.60;99.90;;;;;;5074566;28;20258;-61
2021/08/25 01:30:50;;;;;;;10.67;9.67;;;13.50;99.90;;;;;;5074662;28;20224;-61
2021/08/25 01:33:19;;;;;;;12.33;9.33;;;13.50;99.90;;;;;;5074753;28;20258;-61
2021/08/25 01:35:45;;;;;;;10.07;9.07;;;13.50;99.90;;;;;;5074720;28;20208;-61
2021/08/25 01:38:22;;;;;;;10.47;9.37;;;13.50;99.90;;;;;;5074824;28;20207;-61
2021/08/25 01:40:49;;;;;;;10.30;8.90;;;13.50;99.90;;;;;;5074296;28;20712;-61
2021/08/25 01:43:17;;;;;;;9.47;8.47;;;13.50;99.90;;;;;;5074320;28;20201;-61
2021/08/25 01:45:43;;;;;;;9.67;8.57;;;13.50;99.90;;;;;;5074083;28;20275;-61
2021/08/25 01:48:11;;;;;;;11.17;9.47;;;13.40;99.90;;;;;;5074338;28;20201;-61
2021/08/25 01:50:39;;;;;;;10.33;9.33;;;13.40;99.90;;;;;;5073971;28;20708;-61
2021/08/25 01:53:05;;;;;;;10.43;9.33;;;13.40;99.90;;;;;;5074380;28;20502;-61
2021/08/25 01:55:32;;;;;;;10.33;9.23;;;13.40;99.90;;;;;;5074083;28;20209;-61
2021/08/25 01:57:59;;;;;;;11.00;9.80;;;13.40;99.90;;;;;;5073964;28;20209;-61
2021/08/25 02:00:25;;;;;;;11.53;10.20;;;13.40;99.90;;;;;;5073876;28;20278;-61
2021/08/25 02:02:52;;;;;;;11.43;10.20;;;13.50;99.90;;;;;;5074138;28;20232;-61
2021/08/25 02:05:20;;;;;;;11.10;10.00;;;13.50;99.90;;;;;;5073582;28;20697;-61
2021/08/25 02:07:47;;;;;;;11.60;9.37;;;13.60;99.90;;;;;;5073650;28;20623;-61
2021/08/25 02:10:13;;;;;;;9.97;8.97;;;13.70;99.90;;;;;;5073948;28;20589;-61
2021/08/25 02:12:40;;;;;;;10.17;9.17;;;13.70;99.90;;;;;;5073926;28;20201;-61
2021/08/25 02:15:08;;;;;;;10.27;9.17;;;13.70;99.90;;;;;;5073751;28;20201;-61
2021/08/25 02:17:34;;;;;;;10.30;9.40;;;13.70;99.90;;;;;;5073765;28;20217;-61
2021/08/25 02:20:01;;;;;;;10.10;9.03;;;13.60;99.90;;;;;;5073590;28;20220;-61
2021/08/25 02:22:29;;;;;;;10.80;9.33;;;13.60;99.90;;;;;;5073695;28;20227;-61
2021/08/25 02:24:56;;;;;;;9.77;8.77;;;13.50;99.90;;;;;;5073493;28;20647;-61
2021/08/25 02:27:22;;;;;;;10.03;9.03;;;13.40;99.90;;;;;;5073843;28;20209;-61
2021/08/25 02:29:55;;;;;;;12.57;8.90;;;13.40;99.90;;;;;;5073396;28;20209;-61
2021/08/25 02:32:22;;;;;;;10.13;9.13;;;13.30;99.90;;;;;;5073148;28;20205;-61
2021/08/25 02:34:49;;;;;;;10.27;8.70;;;13.20;99.90;;;;;;5073484;28;20209;-61
2021/08/25 02:37:15;;;;;;;9.90;8.60;;;13.20;99.90;;;;;;5073673;28;20479;-61
2021/08/25 02:39:44;;;;;;;12.90;9.07;;;13.30;99.90;;;;;;5072947;28;20209;-61
2021/08/25 02:42:10;;;;;;;14.00;10.07;;;13.30;99.90;;;;;;5073174;28;20598;-61
2021/08/25 02:44:37;;;;;;;10.83;9.83;;;13.30;99.90;;;;;;5073059;28;20216;-61
2021/08/25 02:47:04;;;;;;;14.23;11.17;;;13.30;99.90;;;;;;5073453;28;20229;-61
2021/08/25 02:49:31;;;;;;;10.93;9.80;;;13.30;99.90;;;;;;5073635;28;20209;-61
2021/08/25 02:51:58;;;;;;;10.67;9.67;;;13.20;99.90;;;;;;5073374;28;20244;-61
2021/08/25 02:54:24;;;;;;;13.93;12.30;;;13.20;99.90;;;;;;5072918;28;20680;-61
2021/08/25 02:56:52;;;;;;;11.70;10.17;;;13.20;99.90;;;;;;5073066;28;20224;-61
2021/08/25 02:59:21;;;;;;;12.27;10.67;;;13.10;99.90;;;;;;5073059;28;20205;-61
2021/08/25 03:01:48;;;;;;;13.83;10.37;;;13.10;99.90;;;;;;5072965;28;20545;-61
2021/08/25 03:04:15;;;;;;;12.33;10.53;;;13.10;99.90;;;;;;5073055;28;20228;-61
2021/08/25 03:06:41;;;;;;;14.47;12.23;;;13.00;99.90;;;;;;5072750;28;20217;-61
2021/08/25 03:09:08;;;;;;;12.43;11.13;;;13.00;99.90;;;;;;5072383;28;20208;-61
2021/08/25 03:11:35;;;;;;;12.17;10.83;;;13.00;99.90;;;;;;5072487;28;20650;-61
2021/08/25 03:14:03;;;;;;;12.77;11.53;;;12.90;99.90;;;;;;5072300;28;20209;-61
2021/08/25 03:16:30;;;;;;;15.63;12.53;;;12.90;99.90;;;;;;5072603;28;20197;-61
2021/08/25 03:18:57;;;;;;;11.93;10.73;;;12.90;99.90;;;;;;5072426;28;20257;-61
2021/08/25 03:21:23;;;;;;;13.07;11.70;;;12.90;99.90;;;;;;5072498;28;20232;-61
2021/08/25 03:23:50;;;;;;;12.07;10.67;;;12.80;99.90;;;;;;5072185;28;20216;-61
2021/08/25 03:26:17;;;;;;;11.17;10.07;;;12.90;99.90;;;;;;5072507;28;20652;-61
2021/08/25 03:28:43;;;;;;;12.93;11.53;;;12.90;99.90;;;;;;5072414;28;20201;-61
2021/08/25 03:31:12;;;;;;;13.30;12.00;;;12.90;99.90;;;;;;5072547;28;20231;-61
2021/08/25 03:33:38;;;;;;;14.63;12.60;;;12.90;99.90;;;;;;5072353;28;20205;-61
2021/08/25 03:36:05;;;;;;;14.00;12.03;;;12.90;99.90;;;;;;5072311;28;20264;-61
2021/08/25 03:38:32;;;;;;;12.70;11.30;;;12.90;99.90;;;;;;5072390;28;20559;-61
2021/08/25 03:40:59;;;;;;;13.03;10.83;;;12.80;99.90;;;;;;5072533;28;20263;-65
2021/08/25 03:43:25;;;;;;;12.77;11.37;;;12.80;99.90;;;;;;5071242;28;20213;-59
2021/08/25 03:45:52;;;;;;;13.50;11.73;;;12.80;99.90;;;;;;5071992;28;20221;-59
2021/08/25 03:48:20;;;;;;;13.17;11.07;;;12.80;99.90;;;;;;5071974;28;20669;-60
2021/08/25 03:50:48;;;;;;;14.00;12.47;;;12.80;99.90;;;;;;5071920;28;20228;-58
2021/08/25 03:53:14;;;;;;;13.50;11.77;;;12.80;99.90;;;;;;5071979;28;20208;-60
2021/08/25 03:55:42;;;;;;;14.47;12.97;;;12.80;99.90;;;;;;5071746;28;20258;-63
2021/08/25 03:58:09;;;;;;;12.07;10.73;;;12.80;99.90;;;;;;5071680;28;20201;-59
2021/08/25 04:00:35;;;;;;;13.50;10.93;;;12.70;99.90;;;;;;5071638;28;20232;-61
2021/08/25 04:03:02;;;;;;;17.03;14.77;;;12.70;99.90;;;;;;5071567;28;20581;-60
2021/08/25 04:05:30;;;;;;;14.67;12.60;;;12.70;99.90;;;;;;5071157;28;20216;-59
2021/08/25 04:07:57;;;;;;;27.40;20.57;;;12.70;99.90;;;;;;5071761;28;20208;-60
2021/08/25 04:10:24;;;;;;;13.53;11.67;;;12.70;99.90;;;;;;5071626;28;20235;-60
2021/08/25 04:12:50;;;;;;;31.10;24.23;;;12.70;99.90;;;;;;5071808;28;20209;-64
2021/08/25 04:15:18;;;;;;;17.30;13.17;;;12.70;99.90;;;;;;5071541;28;20208;-60
2021/08/25 04:17:45;;;;;;;14.13;12.03;;;12.60;99.90;;;;;;5071381;28;20347;-61
2021/08/25 04:20:13;;;;;;;13.17;11.10;;;12.60;99.90;;;;;;5071438;28;20232;-62
2021/08/25 04:22:41;;;;;;;13.03;11.27;;;12.60;99.90;;;;;;5071527;28;20212;-60
2021/08/25 04:25:08;;;;;;;14.67;11.27;;;12.50;99.90;;;;;;5071112;28;20205;-61
2021/08/25 04:27:35;;;;;;;13.80;11.50;;;12.50;99.90;;;;;;5071095;28;20433;-64
2021/08/25 04:30:02;;;;;;;12.40;11.10;;;12.60;99.90;;;;;;5071046;28;20278;-64
2021/08/25 04:32:28;;;;;;;13.47;11.70;;;12.60;99.90;;;;;;5070953;28;20205;-60
2021/08/25 04:34:55;;;;;;;14.43;12.17;;;12.60;99.90;;;;;;5071190;28;20207;-59
2021/08/25 04:37:22;;;;;;;15.03;10.60;;;12.60;99.90;;;;;;5071176;28;20212;-62
2021/08/25 04:39:50;;;;;;;15.10;11.73;;;12.70;99.90;;;;;;5070794;28;20699;-60
2021/08/25 04:42:16;;;;;;;12.97;11.30;;;12.70;99.90;;;;;;5071140;28;20212;-60
2021/08/25 04:44:43;;;;;;;12.53;10.50;;;12.70;99.90;;;;;;5070827;28;20205;-62
2021/08/25 04:47:10;;;;;;;12.17;10.63;;;12.80;99.90;;;;;;5071337;28;20440;-59
2021/08/25 04:49:36;;;;;;;13.93;11.10;;;12.80;99.90;;;;;;5070915;28;20205;-63
2021/08/25 04:52:04;;;;;;;14.57;11.33;;;12.80;99.90;;;;;;5070874;28;20201;-60
2021/08/25 04:54:30;;;;;;;13.10;10.67;;;12.90;99.90;;;;;;5070723;28;20205;-63
2021/08/25 04:56:58;;;;;;;14.63;10.37;;;12.90;99.90;;;;;;5070963;28;20208;-62
2021/08/25 04:59:25;;;;;;;13.43;10.77;;;12.90;99.90;;;;;;5070585;28;20208;-62
2021/08/25 05:01:51;;;;;;;12.00;10.67;;;13.00;99.90;;;;;;5070607;28;20233;-60
2021/08/25 05:04:18;;;;;;;13.73;10.07;;;13.10;99.90;;;;;;5070943;28;20212;-59
2021/08/25 05:06:45;;;;;;;11.40;10.03;;;13.10;99.90;;;;;;5070805;28;20225;-65
2021/08/25 05:09:11;;;;;;;14.63;10.63;;;13.20;99.90;;;;;;5070568;28;20208;-60
2021/08/25 05:11:38;;;;;;;10.77;9.70;;;13.20;99.90;;;;;;5070445;28;20777;-60
2021/08/25 05:14:06;;;;;;;14.23;9.87;;;13.30;99.90;;;;;;5070176;28;20207;-62
2021/08/25 05:16:33;;;;;;;12.53;10.73;;;13.40;99.90;;;;;;5070753;28;20201;-61
2021/08/25 05:18:59;;;;;;;13.40;10.83;;;13.50;99.90;;;;;;5070519;28;20209;-61
2021/08/25 05:21:26;;;;;;;11.17;9.70;;;13.60;99.90;;;;;;5070666;28;20228;-60
2021/08/25 05:23:53;;;;;;;11.60;10.43;;;13.70;99.90;;;;;;5070440;28;20215;-61
2021/08/25 05:26:20;;;;;;;12.60;11.30;;;13.80;99.90;;;;;;5070358;28;20221;-62
2021/08/25 05:28:47;;;;;;;11.07;9.97;;;13.80;99.90;;;;;;5070214;28;20208;-63
2021/08/25 05:31:15;;;;;;;11.23;9.67;;;13.90;99.90;;;;;;5070663;28;20301;-60
2021/08/25 05:33:42;;;;;;;11.77;10.40;;;14.00;99.90;;;;;;5070463;28;20205;-60
2021/08/25 05:36:08;;;;;;;9.77;8.80;;;14.10;99.90;;;;;;5070692;28;20201;-61
2021/08/25 05:38:35;;;;;;;10.53;9.00;;;14.10;99.90;;;;;;5070227;28;20205;-62
2021/08/25 05:41:02;;;;;;;13.40;9.27;;;14.30;99.90;;;;;;5070358;28;20232;-60
2021/08/25 05:43:28;;;;;;;9.90;8.77;;;14.40;99.90;;;;;;5070211;28;20224;-64
2021/08/25 05:45:55;;;;;;;8.77;7.83;;;14.90;99.90;;;;;;5070615;28;20205;-64
2021/08/25 05:48:23;;;;;;;8.97;7.60;;;15.90;99.90;;;;;;5070443;28;20205;-61
2021/08/25 05:50:50;;;;;;;6.47;5.87;;;17.40;99.90;;;;;;5070136;28;20712;-60
2021/08/25 05:53:17;;;;;;;8.50;6.63;;;19.00;99.90;;;;;;5070468;28;20205;-62
2021/08/25 05:55:44;;;;;;;6.93;6.13;;;20.50;99.90;;;;;;5070353;28;20212;-61
2021/08/25 05:58:10;;;;;;;6.70;5.45;;;21.90;99.90;;;;;;5070015;28;20209;-61
2021/08/25 06:00:37;;;;;;;8.88;6.18;;;22.90;99.90;;;;;;5070127;28;20236;-65
2021/08/25 06:03:04;;;;;;;8.93;5.82;;;23.90;99.90;;;;;;5070502;28;20209;-63
2021/08/25 06:05:32;;;;;;;8.40;5.60;;;24.70;99.90;;;;;;5070173;28;20232;-61
2021/08/25 06:07:58;;;;;;;7.20;5.20;;;25.40;99.90;;;;;;5072606;28;20229;-61
2021/08/25 06:10:25;;;;;;;6.80;5.40;;;25.90;99.90;;;;;;5073575;28;20227;-60
2021/08/25 06:12:52;;;;;;;7.57;6.80;;;26.50;99.90;;;;;;5073961;28;20213;-65
2021/08/25 06:15:18;;;;;;;5.78;4.90;;;27.40;99.90;;;;;;5073861;28;20205;-61
2021/08/25 06:17:45;;;;;;;9.70;4.88;;;28.00;98.50;;;;;;5073761;28;20205;-61
2021/08/25 06:20:12;;;;;;;6.70;4.65;;;28.60;95.90;;;;;;5073695;28;20232;-65
2021/08/25 06:22:40;;;;;;;5.47;4.50;;;28.90;93.90;;;;;;5073629;28;20205;-61
2021/08/25 06:25:09;;;;;;;5.10;4.60;;;29.30;92.80;;;;;;5073291;28;20224;-60
2021/08/25 06:27:36;;;;;;;4.90;4.38;;;29.80;90.90;;;;;;5073458;28;20227;-60
2021/08/25 06:30:02;;;;;;;6.53;4.90;;;30.20;88.80;;;;;;5073492;28;20228;-64
2021/08/25 06:32:29;;;;;;;5.72;4.38;;;30.30;83.80;;;;;;5073585;28;20205;-60
2021/08/25 06:34:56;;;;;;;4.90;4.32;;;29.00;86.80;;;;;;5073165;28;20209;-59
2021/08/25 06:37:23;;;;;;;7.97;4.60;;;28.20;88.30;;;;;;5073031;28;20236;-63
2021/08/25 06:39:51;;;;;;;6.50;4.75;;;27.30;90.60;;;;;;5072728;28;20578;-64
2021/08/25 06:42:18;;;;;;;7.43;4.75;;;26.30;92.20;;;;;;5073373;28;20205;-64
2021/08/25 06:44:44;;;;;;;4.45;4.05;;;26.00;93.80;;;;;;5073046;28;20201;-61
2021/08/25 06:47:11;;;;;;;5.88;4.32;;;26.70;92.70;;;;;;5073054;28;20267;-68
2021/08/25 06:49:38;;;;;;;7.35;4.43;;;27.50;91.90;;;;;;5072966;28;20680;-61
2021/08/25 06:52:05;;;;;;;6.10;4.13;;;28.90;90.10;;;;;;5072928;28;20216;-63
2021/08/25 06:54:31;;;;;;;6.72;4.50;;;29.60;86.00;;;;;;5072976;28;20258;-62
2021/08/25 06:57:00;;;;;;;4.38;3.97;;;30.00;85.30;;;;;;5072909;28;20200;-61
2021/08/25 06:59:27;;;;;;;5.05;3.97;;;30.60;82.70;;;;;;5072643;28;20212;-63
2021/08/25 07:01:54;;;;;;;5.00;4.50;;;31.60;79.60;;;;;;5072587;28;20220;-62
2021/08/25 07:04:20;;;;;;;8.32;4.88;;;32.40;75.90;;;;;;5072461;28;20212;-63
2021/08/25 07:06:47;;;;;;;5.68;3.83;;;33.00;71.10;;;;;;5072476;28;20225;-61
2021/08/25 07:09:14;;;;;;;4.20;3.80;;;33.40;68.40;;;;;;5072370;28;20201;-61
2021/08/25 07:11:41;;;;;;;5.15;3.95;;;32.60;69.80;;;;;;5072518;28;20740;-61
2021/08/25 07:14:09;;;;;;;6.70;3.83;;;31.20;73.40;;;;;;5072365;28;20216;-62
2021/08/25 07:16:36;;;;;;;6.53;4.93;;;30.50;75.50;;;;;;5072443;28;20201;-63
2021/08/25 07:19:04;;;;;;;10.05;9.05;;;31.30;74.90;;;;;;5070808;28;20205;-62
2021/08/25 07:21:31;;;;;;;8.20;4.60;;;32.50;71.60;;;;;;5072615;28;20314;-63
2021/08/25 07:23:57;;;;;;;6.30;3.90;;;33.20;67.80;;;;;;5069366;28;20442;-61
2021/08/25 07:26:24;;;;;;;5.80;3.55;;;33.30;65.80;;;;;;5072197;28;20278;-60
2021/08/25 07:28:51;;;;;;;6.45;4.95;;;33.80;64.30;;;;;;5071998;28;20205;-60
2021/08/25 07:31:19;;;;;;;5.43;3.40;;;34.30;62.70;;;;;;5072031;28;20600;-59
2021/08/25 07:33:46;;;;;;;3.78;3.05;;;34.50;59.40;;;;;;5071416;28;20354;-58
2021/08/25 07:36:12;;;;;;;6.45;3.45;;;34.00;59.50;;;;;;5072192;28;20216;-58
2021/08/25 07:38:39;;;;;;;6.07;3.75;;;33.80;59.40;;;;;;5071725;28;20665;-60
2021/08/25 07:41:06;;;;;;;5.00;3.92;;;33.60;59.10;;;;;;5071766;28;20319;-59
2021/08/25 07:43:33;;;;;;;4.85;3.30;;;33.70;58.70;;;;;;5071705;28;20212;-61
2021/08/25 07:45:59;;;;;;;5.70;3.35;;;33.50;57.60;;;;;;5071574;28;20205;-60
2021/08/25 07:48:27;;;;;;;3.67;3.28;;;33.50;58.70;;;;;;5071716;28;20233;-61
2021/08/25 07:50:54;;;;;;;3.42;3.10;;;33.70;58.20;;;;;;5071979;28;20225;-59
2021/08/25 07:53:21;;;;;;;4.43;3.22;;;33.70;57.60;;;;;;5072334;28;20210;-59
2021/08/25 07:55:48;;;;;;;3.25;2.95;;;33.80;57.20;;;;;;5071038;28;20205;-62
2021/08/25 07:58:15;;;;;;;4.20;2.90;;;34.00;56.80;;;;;;5071095;28;20212;-61
2021/08/25 08:00:42;;;;;;;5.00;3.30;;;34.00;56.40;;;;;;5071095;28;20739;-60
2021/08/25 08:03:08;;;;;;;3.72;3.10;;;34.20;56.80;;;;;;5071098;28;20213;-60
2021/08/25 08:05:36;;;;;;;4.65;2.95;;;33.90;56.90;;;;;;5071361;28;20235;-61
2021/08/25 08:08:04;;;;;;;5.57;3.20;;;34.00;56.70;;;;;;5071285;28;20227;-62
2021/08/25 08:10:31;;;;;;;3.92;3.25;;;34.30;56.20;;;;;;5071393;28;20291;-62
2021/08/25 08:12:57;;;;;;;4.15;3.17;;;34.60;55.30;;;;;;5071179;28;20213;-60
2021/08/25 08:15:26;;;;;;;5.05;3.35;;;34.90;55.20;;;;;;5070977;28;20231;-62
2021/08/25 08:17:53;;;;;;;4.70;3.08;;;35.00;54.40;;;;;;5071440;28;20205;-62
2021/08/25 08:20:20;;;;;;;3.67;2.97;;;34.40;53.00;;;;;;5071332;28;20221;-62
2021/08/25 08:22:49;;;;;;;4.28;2.97;;;32.90;55.30;;;;;;5071103;28;20205;-63
2021/08/25 08:25:15;;;;;;;5.22;3.25;;;31.00;58.90;;;;;;5070871;28;20212;-62
2021/08/25 08:27:42;;;;;;;5.40;3.40;;;29.20;62.70;;;;;;5070852;28;20495;-62
2021/08/25 08:30:10;;;;;;;4.32;3.33;;;27.50;67.40;;;;;;5070846;28;20225;-61
2021/08/25 08:32:37;;;;;;;4.60;2.90;;;26.20;71.50;;;;;;5071128;28;20209;-62
2021/08/25 08:35:04;;;;;;;3.38;2.72;;;25.30;74.60;;;;;;5071078;28;20628;-61
2021/08/25 08:37:31;;;;;;;4.45;3.45;;;24.50;75.90;;;;;;5071159;28;20216;-61
2021/08/25 08:39:59;;;;;;;4.53;3.20;;;23.60;79.00;;;;;;5070681;28;20271;-62
2021/08/25 08:42:27;;;;;;;5.65;3.30;;;22.80;80.90;;;;;;5070813;28;20240;-62
2021/08/25 08:44:56;;;;;;;6.03;3.10;;;22.20;84.60;;;;;;5070767;28;20209;-61
2021/08/25 08:47:24;;;;;;;3.83;3.10;;;21.80;87.00;;;;;;5070982;28;20274;-61
2021/08/25 08:49:53;;;;;;;5.57;3.10;;;21.50;88.60;;;;;;5070836;28;20246;-63
2021/08/25 08:52:21;;;;;;;4.38;3.20;;;21.40;90.70;;;;;;5070935;28;20240;-63
2021/08/25 08:54:50;;;;;;;3.90;3.25;;;21.20;89.70;;;;;;5070708;28;20209;-63
2021/08/25 08:57:18;;;;;;;3.58;2.80;;;21.20;90.70;;;;;;5071195;28;20204;-63
2021/08/25 08:59:45;;;;;;;4.00;3.08;;;21.10;91.20;;;;;;5070912;28;20205;-63
2021/08/25 09:02:12;;;;;;;5.05;3.22;;;21.30;91.60;;;;;;5071000;28;20211;-63
2021/08/25 09:04:43;;;;;;;5.43;3.15;;;21.10;90.80;;;;;;5071037;28;20204;-63
2021/08/25 09:07:18;;;;;;;6.45;3.10;;;20.90;91.90;;;;;;5071323;28;20645;-65
2021/08/25 09:09:53;;;;;;;6.90;3.15;;;20.70;92.80;;;;;;5073957;28;20262;-63
2021/08/25 09:12:21;;;;;;;5.07;3.22;;;20.80;92.40;;;;;;5074944;28;20672;-63
2021/08/25 09:14:47;;;;;;;5.68;3.30;;;20.90;93.10;;;;;;5071680;28;20653;-63
2021/08/25 09:17:26;;;;;;;5.88;3.30;;;20.90;93.50;;;;;;5070578;28;20259;-63
2021/08/25 09:20:06;;;;;;;3.92;3.10;;;21.10;92.70;;;;;;5070239;28;20250;-62
2021/08/25 09:22:33;;;;;;;6.68;3.20;;;21.10;92.70;;;;;;5070742;28;20200;-62
2021/08/25 09:24:59;;;;;;;7.15;3.60;;;21.10;92.30;;;;;;5070544;28;20200;-63
2021/08/25 09:27:27;;;;;;;6.20;3.65;;;21.20;91.90;;;;;;5070648;28;20266;-63
2021/08/25 09:29:56;;;;;;;4.88;3.13;;;21.30;92.00;;;;;;5070517;28;20240;-63
2021/08/25 09:32:25;;;;;;;5.15;3.13;;;21.20;91.40;;;;;;5070481;28;20291;-62
2021/08/25 09:34:55;;;;;;;4.65;3.47;;;21.20;91.60;;;;;;5070348;28;20204;-63
2021/08/25 09:37:24;;;;;;;4.68;3.20;;;21.20;91.90;;;;;;5070315;28;20677;-63
2021/08/25 09:40:00;;;;;;;4.20;3.33;;;21.30;92.40;;;;;;5070090;28;20205;-62
2021/08/25 09:42:42;;;;;;;4.80;3.22;;;21.40;94.40;;;;;;5072204;28;20623;-62
2021/08/25 09:45:10;;;;;;;5.40;3.28;;;21.40;95.10;;;;;;5074375;28;20193;-64
2021/08/25 09:47:48;;;;;;;5.22;3.28;;;21.40;95.70;;;;;;5074193;28;20228;-62
2021/08/25 09:50:16;;;;;;;4.78;3.50;;;21.60;96.10;;;;;;5074125;28;20701;-63
2021/08/25 09:52:44;;;;;;;3.97;3.35;;;21.80;95.70;;;;;;5074033;28;20292;-63
2021/08/25 09:55:11;;;;;;;7.03;3.50;;;22.00;95.50;;;;;;5074028;28;20211;-63
2021/08/25 09:57:41;;;;;;;4.45;3.53;;;22.20;96.10;;;;;;5073789;28;20293;-63
2021/08/25 10:00:09;;;;;;;4.28;3.42;;;22.40;95.70;;;;;;5073657;28;20232;-64
2021/08/25 10:02:36;;;;;;;4.32;3.55;;;22.40;94.90;;;;;;5073520;28;20205;-63
2021/08/25 10:05:04;;;;;;;3.80;3.28;;;22.30;94.90;;;;;;5073911;28;20205;-65
2021/08/25 10:07:31;;;;;;;3.95;3.30;;;22.20;95.10;;;;;;5073609;28;20220;-63
2021/08/25 10:09:58;;;;;;;6.35;3.72;;;22.20;95.30;;;;;;5073236;28;20240;-63
2021/08/25 10:12:25;;;;;;;4.25;3.55;;;22.20;95.40;;;;;;5073639;28;20208;-63
2021/08/25 10:14:53;;;;;;;5.05;3.40;;;22.30;95.60;;;;;;5073543;28;20215;-62
2021/08/25 10:17:40;;;;;;;6.50;3.97;;;22.20;95.90;;;;;;5073590;28;20209;-63
2021/08/25 10:20:33;;;;;;;3.78;3.30;;;22.20;95.50;;;;;;5073508;28;20232;-63
2021/08/25 10:23:01;;;;;;;4.20;3.60;;;21.90;95.50;;;;;;5073946;28;20258;-65
2021/08/25 10:25:29;;;;;;;5.03;3.55;;;21.70;95.20;;;;;;5073854;28;20213;-65
2021/08/25 10:28:06;;;;;;;4.10;3.70;;;21.70;95.10;;;;;;5073533;28;20220;-64
2021/08/25 10:30:54;;;;;;;4.40;3.47;;;22.00;94.70;;;;;;5073582;28;20248;-65
2021/08/25 10:33:21;;;;;;;3.88;3.47;;;22.00;95.30;;;;;;5073564;28;20696;-65
2021/08/25 10:35:48;;;;;;;4.65;3.90;;;22.00;94.20;;;;;;5073243;28;20638;-65
2021/08/25 10:38:27;;;;;;;4.50;3.03;;;22.20;94.30;;;;;;5073188;28;20205;-65
2021/08/25 10:41:00;;;;;;;4.05;3.45;;;22.60;93.20;;;;;;5073303;28;20233;-65
2021/08/25 10:43:38;;;;;;;5.57;3.78;;;22.70;93.20;;;;;;5072902;28;20680;-65
2021/08/25 10:46:07;;;;;;;9.93;3.72;;;22.50;92.50;;;;;;5072977;28;20734;-64
2021/08/25 10:48:53;;;;;;;4.78;3.70;;;22.30;93.00;;;;;;5072891;28;20229;-64
2021/08/25 10:51:34;;;;;;;5.00;3.80;;;22.20;93.00;;;;;;5072882;28;20716;-65
2021/08/25 10:54:01;;;;;;;3.97;3.28;;;22.30;92.30;;;;;;5072392;28;20201;-64
2021/08/25 10:56:31;;;;;;;4.97;3.88;;;22.30;92.30;;;;;;5072980;28;20216;-64
2021/08/25 10:59:02;;;;;;;4.75;3.58;;;22.40;92.80;;;;;;5073121;28;20201;-65
2021/08/25 11:01:32;;;;;;;4.63;3.67;;;22.50;92.40;;;;;;5072654;28;20232;-65
2021/08/25 11:04:01;;;;;;;8.65;5.28;;;22.60;91.00;;;;;;5072222;28;20212;-64
2021/08/25 11:06:39;;;;;;;6.40;3.38;;;22.60;90.50;;;;;;5070350;28;20212;-63
2021/08/25 11:09:31;;;;;;;5.25;3.45;;;22.80;90.00;;;;;;5072079;28;20315;-63
2021/08/25 11:12:04;;;;;;;5.10;3.70;;;23.10;90.30;;;;;;5072079;28;20235;-62
2021/08/25 11:14:34;;;;;;;4.35;3.50;;;23.20;89.70;;;;;;5071840;28;20227;-63
2021/08/25 11:17:07;;;;;;;6.65;3.70;;;23.20;89.50;;;;;;5071926;28;20208;-63
2021/08/25 11:19:37;;;;;;;4.82;3.75;;;23.10;90.00;;;;;;5072424;28;20205;-63
2021/08/25 11:22:04;;;;;;;5.65;4.13;;;23.30;89.50;;;;;;5072382;28;20237;-64
2021/08/25 11:24:36;;;;;;;11.65;4.13;;;23.60;88.60;;;;;;5072551;28;20649;-64
2021/08/25 11:27:04;;;;;;;6.53;4.20;;;23.90;88.00;;;;;;5072225;28;20216;-65
2021/08/25 11:29:30;;;;;;;4.60;3.33;;;24.10;86.90;;;;;;5072184;28;20231;-63
2021/08/25 11:32:04;;;;;;;6.90;3.50;;;24.10;88.00;;;;;;5072157;28;20708;-63
2021/08/25 11:34:32;;;;;;;4.28;3.53;;;24.00;85.80;;;;;;5072503;28;20664;-64
2021/08/25 11:37:02;;;;;;;4.68;3.30;;;24.00;85.60;;;;;;5072613;28;20216;-64
2021/08/25 11:39:30;;;;;;;4.60;3.38;;;24.00;86.40;;;;;;5072742;28;20231;-63
2021/08/25 11:41:58;;;;;;;6.35;3.58;;;24.20;87.50;;;;;;5072693;28;20659;-63
2021/08/25 11:44:42;;;;;;;5.03;3.60;;;24.20;85.20;;;;;;5073212;28;20213;-63
2021/08/25 11:47:14;;;;;;;5.88;3.63;;;24.00;84.60;;;;;;5072776;28;20205;-65
2021/08/25 11:49:44;;;;;;;5.20;3.90;;;23.80;85.70;;;;;;5071934;28;20228;-62
2021/08/25 11:52:11;;;;;;;6.70;4.10;;;23.70;86.10;;;;;;5071863;28;20665;-62
2021/08/25 11:54:39;;;;;;;5.40;3.75;;;23.70;84.50;;;;;;5071877;28;20593;-63
2021/08/25 11:57:08;;;;;;;6.60;4.00;;;23.90;84.90;;;;;;5071806;28;20209;-62
2021/08/25 11:59:35;;;;;;;5.97;4.30;;;24.30;83.40;;;;;;5071849;28;20201;-62
2021/08/25 12:02:07;;;;;;;5.20;3.90;;;24.60;81.20;;;;;;5071749;28;20236;-62
2021/08/25 12:04:34;;;;;;;6.07;4.18;;;24.90;81.10;;;;;;5070776;28;20212;-62
2021/08/25 12:07:10;;;;;;;4.85;3.92;;;24.80;81.80;;;;;;5071646;28;20213;-63
2021/08/25 12:09:37;;;;;;;5.15;3.72;;;24.70;82.00;;;;;;5071593;28;20275;-62
2021/08/25 12:12:05;;;;;;;4.82;4.13;;;24.50;82.10;;;;;;5071360;28;20215;-63
2021/08/25 12:14:50;;;;;;;5.03;4.07;;;24.40;81.00;;;;;;5071129;28;20215;-62
2021/08/25 12:17:16;;;;;;;8.18;4.38;;;24.50;80.70;;;;;;5071578;28;20228;-62
2021/08/25 12:19:55;;;;;;;8.77;4.43;;;24.30;80.10;;;;;;5071240;28;20239;-63
2021/08/25 12:22:25;;;;;;;5.70;4.32;;;24.20;82.10;;;;;;5071360;28;20208;-62
2021/08/25 12:24:52;;;;;;;7.82;4.30;;;24.00;82.80;;;;;;5071113;28;20205;-63
2021/08/25 12:27:19;;;;;;;9.52;4.22;;;23.80;82.00;;;;;;5071307;28;20209;-63
2021/08/25 12:29:46;;;;;;;8.40;4.50;;;23.60;81.20;;;;;;5070958;28;20224;-62
2021/08/25 12:32:13;;;;;;;6.68;4.65;;;23.50;81.80;;;;;;5071133;28;20212;-62
2021/08/25 12:35:00;;;;;;;6.80;4.80;;;23.40;83.00;;;;;;5070870;28;20216;-63
2021/08/25 12:37:51;;;;;;;4.72;3.83;;;23.30;82.90;;;;;;5071135;28;20205;-62
2021/08/25 12:40:20;;;;;;;6.50;4.20;;;23.50;84.10;;;;;;5070930;28;20238;-63
2021/08/25 12:42:47;;;;;;;5.65;4.35;;;23.70;84.70;;;;;;5071023;28;20204;-62
2021/08/25 12:45:15;;;;;;;5.47;4.05;;;23.80;83.40;;;;;;5070650;28;20201;-62
2021/08/25 12:47:41;;;;;;;6.70;4.40;;;23.80;82.00;;;;;;5071200;28;20208;-63